createdAt,value
2023-02-02T00:00:09.722Z,6.80
2023-02-02T00:02:38.600Z,6.80
2023-02-02T00:05:07.806Z,6.80
2023-02-02T00:07:36.547Z,6.70
2023-02-02T00:10:07.403Z,6.70
2023-02-02T00:12:37.553Z,6.70
2023-02-02T00:15:06.110Z,6.70
2023-02-02T00:17:35.337Z,6.70
2023-02-02T00:20:05.479Z,6.70
2023-02-02T00:22:33.897Z,6.80
2023-02-02T00:25:01.895Z,6.80
2023-02-02T00:27:32.001Z,6.80
2023-02-02T00:30:01.738Z,6.90
2023-02-02T00:32:30.973Z,7.00
2023-02-02T00:37:43.440Z,7.10
2023-02-02T00:40:14.087Z,7.10
2023-02-02T00:42:43.338Z,7.10
2023-02-02T00:45:36.236Z,7.10
2023-02-02T00:48:06.827Z,7.10
2023-02-02T00:50:35.226Z,7.10
2023-02-02T00:53:07.012Z,7.10
2023-02-02T01:01:30.572Z,7.20
2023-02-02T01:04:03.259Z,7.20
2023-02-02T01:06:32.574Z,7.30
2023-02-02T01:09:01.216Z,7.20
2023-02-02T01:11:31.072Z,7.20
2023-02-02T01:13:59.720Z,7.20
2023-02-02T01:16:28.310Z,7.10
2023-02-02T01:18:57.066Z,7.10
2023-02-02T01:24:13.075Z,7.00
2023-02-02T01:26:42.726Z,7.00
2023-02-02T01:29:13.562Z,7.10
2023-02-02T01:31:42.364Z,7.10
2023-02-02T01:34:12.160Z,7.10
2023-02-02T01:36:40.415Z,7.10
2023-02-02T01:39:34.636Z,7.20
2023-02-02T01:42:16.732Z,7.20
2023-02-02T01:45:04.272Z,7.10
2023-02-02T01:47:35.395Z,7.00
2023-02-02T01:50:04.810Z,7.00
2023-02-02T01:52:33.979Z,7.00
2023-02-02T01:55:10.786Z,7.00
2023-02-02T01:57:42.456Z,7.00
2023-02-02T02:00:13.375Z,7.00
2023-02-02T02:02:42.609Z,6.90
2023-02-02T02:05:11.172Z,6.80
2023-02-02T02:07:41.663Z,6.80
2023-02-02T02:10:10.749Z,6.80
2023-02-02T02:12:40.605Z,6.80
2023-02-02T02:15:27.533Z,6.80
2023-02-02T02:18:02.352Z,6.80
2023-02-02T02:20:53.737Z,6.80
2023-02-02T02:24:00.145Z,6.80
2023-02-02T02:26:41.121Z,6.80
2023-02-02T02:29:24.310Z,6.80
2023-02-02T02:32:06.696Z,6.80
2023-02-02T02:34:41.613Z,6.80
2023-02-02T02:37:11.876Z,6.80
2023-02-02T02:39:44.216Z,6.80
2023-02-02T02:42:16.231Z,6.80
2023-02-02T02:44:45.333Z,6.70
2023-02-02T02:47:15.767Z,6.70
2023-02-02T02:49:44.664Z,6.70
2023-02-02T02:52:13.825Z,6.70
2023-02-02T02:54:45.305Z,6.70
2023-02-02T02:57:20.641Z,6.70
2023-02-02T02:59:54.466Z,6.60
2023-02-02T03:02:32.502Z,6.60
2023-02-02T03:05:07.343Z,6.60
2023-02-02T03:07:38.817Z,6.60
2023-02-02T03:10:08.842Z,6.60
2023-02-02T03:12:44.934Z,6.60
2023-02-02T03:15:13.899Z,6.60
2023-02-02T03:17:43.871Z,6.60
2023-02-02T03:20:12.380Z,6.70
2023-02-02T03:22:40.321Z,6.70
2023-02-02T03:25:11.390Z,6.70
2023-02-02T03:27:39.529Z,6.70
2023-02-02T03:30:08.845Z,6.70
2023-02-02T03:32:37.477Z,6.70
2023-02-02T03:35:07.884Z,6.80
2023-02-02T03:37:36.559Z,6.80
2023-02-02T03:40:04.930Z,6.90
2023-02-02T03:42:32.926Z,6.90
2023-02-02T03:45:01.350Z,7.00
2023-02-02T03:47:30.043Z,7.00
2023-02-02T03:49:58.939Z,7.10
2023-02-02T03:52:29.022Z,7.10
2023-02-02T03:54:57.389Z,7.10
2023-02-02T03:57:25.887Z,7.20
2023-02-02T03:59:54.152Z,7.20
2023-02-02T04:02:22.500Z,7.20
2023-02-02T04:04:50.819Z,7.20
2023-02-02T04:07:19.029Z,7.20
2023-02-02T04:09:48.961Z,7.20
2023-02-02T04:12:17.063Z,7.30
2023-02-02T04:14:45.075Z,7.30
2023-02-02T04:17:13.106Z,7.40
2023-02-02T04:19:41.387Z,7.40
2023-02-02T04:22:09.664Z,7.40
2023-02-02T04:24:38.168Z,7.40
2023-02-02T04:27:07.629Z,7.40
2023-02-02T04:29:35.644Z,7.40
2023-02-02T04:32:03.974Z,7.40
2023-02-02T04:34:32.546Z,7.50
2023-02-02T04:37:00.923Z,7.50
2023-02-02T04:39:29.010Z,7.50
2023-02-02T04:41:57.220Z,7.50
2023-02-02T04:44:26.832Z,7.40
2023-02-02T04:46:54.831Z,7.40
2023-02-02T04:49:23.231Z,7.40
2023-02-02T04:51:51.995Z,7.50
2023-02-02T04:54:20.696Z,7.40
2023-02-02T04:56:49.256Z,7.40
2023-02-02T04:59:17.542Z,7.50
2023-02-02T05:01:47.486Z,7.50
2023-02-02T05:04:16.205Z,7.50
2023-02-02T05:06:44.274Z,7.50
2023-02-02T05:09:13.141Z,7.50
2023-02-02T05:11:44.569Z,7.50
2023-02-02T05:14:12.887Z,7.50
2023-02-02T05:16:41.133Z,7.50
2023-02-02T05:19:11.932Z,7.40
2023-02-02T05:21:39.932Z,7.40
2023-02-02T05:24:08.454Z,7.40
2023-02-02T05:26:36.646Z,7.40
2023-02-02T05:29:06.679Z,7.40
2023-02-02T05:31:34.754Z,7.40
2023-02-02T05:34:03.276Z,7.40
2023-02-02T05:36:32.987Z,7.40
2023-02-02T05:39:01.668Z,7.30
2023-02-02T05:41:30.141Z,7.20
2023-02-02T05:44:00.179Z,7.20
2023-02-02T05:46:30.245Z,7.20
2023-02-02T05:49:00.106Z,7.20
2023-02-02T05:51:30.227Z,7.20
2023-02-02T05:54:01.016Z,7.20
2023-02-02T05:56:29.243Z,7.20
2023-02-02T05:58:57.404Z,7.20
2023-02-02T06:01:25.782Z,7.10
2023-02-02T06:03:54.045Z,7.10
2023-02-02T06:06:22.327Z,7.10
2023-02-02T06:08:50.581Z,7.10
2023-02-02T06:11:20.675Z,7.10
2023-02-02T06:13:48.705Z,7.10
2023-02-02T06:16:17.090Z,7.10
2023-02-02T06:18:45.298Z,7.10
2023-02-02T06:21:13.334Z,7.10
2023-02-02T06:23:45.792Z,7.10
2023-02-02T06:26:13.986Z,7.10
2023-02-02T06:28:48.978Z,7.10
2023-02-02T06:31:19.177Z,7.10
2023-02-02T06:33:47.776Z,7.20
2023-02-02T06:36:15.919Z,7.20
2023-02-02T06:38:44.338Z,7.20
2023-02-02T06:41:12.597Z,7.30
2023-02-02T06:43:41.103Z,7.30
2023-02-02T06:46:11.590Z,7.30
2023-02-02T06:48:39.635Z,7.30
2023-02-02T06:51:08.510Z,7.40
2023-02-02T06:53:37.023Z,7.40
2023-02-02T06:56:05.953Z,7.40
2023-02-02T06:58:35.324Z,7.40
2023-02-02T07:01:05.351Z,7.40
2023-02-02T07:03:35.534Z,7.40
2023-02-02T07:06:11.750Z,7.50
2023-02-02T07:08:39.913Z,7.50
2023-02-02T07:11:12.393Z,7.50
2023-02-02T07:13:45.289Z,7.50
2023-02-02T07:16:14.052Z,7.50
2023-02-02T07:18:44.622Z,7.60
2023-02-02T07:21:17.631Z,7.60
2023-02-02T07:23:47.213Z,7.70
2023-02-02T07:26:16.346Z,7.70
2023-02-02T07:28:45.372Z,7.70
2023-02-02T07:31:16.780Z,7.70
2023-02-02T07:33:47.955Z,7.70
2023-02-02T07:36:17.647Z,7.80
2023-02-02T07:38:47.297Z,7.80
2023-02-02T07:41:17.158Z,7.80
2023-02-02T07:43:48.015Z,7.80
2023-02-02T07:46:16.841Z,7.80
2023-02-02T07:48:46.854Z,7.80
2023-02-02T07:51:16.564Z,7.80
2023-02-02T07:53:45.390Z,7.80
2023-02-02T07:56:14.479Z,7.80
2023-02-02T07:58:43.076Z,7.80
2023-02-02T08:01:12.391Z,7.80
2023-02-02T08:03:41.188Z,7.90
2023-02-02T08:06:13.202Z,7.90
2023-02-02T08:08:41.559Z,8.00
2023-02-02T08:11:11.248Z,8.00
2023-02-02T08:13:39.720Z,8.00
2023-02-02T08:16:09.064Z,8.00
2023-02-02T08:18:38.491Z,8.10
2023-02-02T08:21:09.856Z,8.10
2023-02-02T08:23:40.412Z,8.20
2023-02-02T08:26:09.856Z,8.20
2023-02-02T08:28:38.564Z,8.20
2023-02-02T08:31:08.096Z,8.20
2023-02-02T08:33:36.779Z,8.30
2023-02-02T08:36:05.447Z,8.30
2023-02-02T08:38:33.943Z,8.30
2023-02-02T08:41:07.748Z,8.30
2023-02-02T08:43:36.342Z,8.30
2023-02-02T08:46:05.792Z,8.20
2023-02-02T08:48:34.954Z,8.30
2023-02-02T08:51:03.916Z,8.30
2023-02-02T08:53:32.688Z,8.40
2023-02-02T08:56:01.443Z,8.50
2023-02-02T08:58:33.867Z,8.50
2023-02-02T09:01:06.181Z,8.60
2023-02-02T09:03:34.490Z,8.70
2023-02-02T09:06:07.844Z,8.80
2023-02-02T09:08:36.420Z,8.90
2023-02-02T09:11:05.638Z,9.00
2023-02-02T09:13:35.416Z,9.00
2023-02-02T09:16:04.266Z,9.00
2023-02-02T09:18:32.693Z,9.10
2023-02-02T09:21:02.361Z,9.10
2023-02-02T09:23:31.178Z,9.10
2023-02-02T09:26:02.643Z,9.10
2023-02-02T09:28:31.996Z,9.10
2023-02-02T09:31:08.569Z,9.10
2023-02-02T09:33:39.243Z,9.10
2023-02-02T09:36:09.864Z,9.10
2023-02-02T09:38:38.510Z,9.20
2023-02-02T09:41:31.726Z,9.10
2023-02-02T09:44:04.319Z,9.00
2023-02-02T09:46:40.274Z,9.10
2023-02-02T09:49:10.026Z,9.10
2023-02-02T09:51:40.911Z,9.20
2023-02-02T09:54:14.590Z,9.30
2023-02-02T09:56:45.225Z,9.30
2023-02-02T09:59:20.526Z,9.30
2023-02-02T10:01:53.943Z,9.20
2023-02-02T10:04:24.277Z,9.20
2023-02-02T10:06:53.927Z,9.30
2023-02-02T10:09:30.181Z,9.30
2023-02-02T10:12:01.761Z,9.40
2023-02-02T10:14:34.897Z,9.40
2023-02-02T10:17:13.218Z,9.50
2023-02-02T10:19:42.541Z,9.50
2023-02-02T10:22:13.245Z,9.40
2023-02-02T10:24:41.755Z,9.40
2023-02-02T10:27:14.123Z,9.60
2023-02-02T10:29:49.078Z,9.60
2023-02-02T10:32:23.945Z,9.70
2023-02-02T10:35:14.633Z,9.70
2023-02-02T10:37:45.963Z,9.60
2023-02-02T10:40:17.716Z,9.60
2023-02-02T10:43:12.051Z,9.60
2023-02-02T10:45:42.227Z,9.60
2023-02-02T10:48:15.622Z,9.60
2023-02-02T10:50:45.166Z,9.60
2023-02-02T10:53:14.979Z,9.60
2023-02-02T10:55:46.035Z,9.70
2023-02-02T10:58:21.995Z,9.80
2023-02-02T11:00:51.709Z,9.90
2023-02-02T11:03:23.206Z,10.10
2023-02-02T11:06:08.528Z,10.20
2023-02-02T11:08:38.204Z,10.30
2023-02-02T11:11:12.360Z,10.20
2023-02-02T11:13:43.386Z,10.10
2023-02-02T11:16:22.495Z,10.10
2023-02-02T11:18:53.620Z,10.10
2023-02-02T11:21:23.484Z,10.10
2023-02-02T11:24:00.374Z,10.10
2023-02-02T11:26:29.934Z,10.10
2023-02-02T11:29:00.005Z,10.20
2023-02-02T11:31:36.207Z,10.30
2023-02-02T11:34:22.656Z,10.20
2023-02-02T11:37:03.102Z,10.20
2023-02-02T11:39:32.563Z,10.20
2023-02-02T11:42:06.981Z,10.10
2023-02-02T11:44:36.024Z,10.00
2023-02-02T11:47:06.008Z,9.90
2023-02-02T11:49:37.942Z,9.80
2023-02-02T11:52:15.079Z,9.70
2023-02-02T11:54:47.540Z,9.70
2023-02-02T11:57:19.147Z,9.70
2023-02-02T11:59:47.687Z,9.80
2023-02-02T12:02:27.965Z,9.80
2023-02-02T12:04:56.905Z,9.90
2023-02-02T12:07:28.318Z,9.90
2023-02-02T12:10:00.327Z,9.90
2023-02-02T12:12:43.499Z,10.00
2023-02-02T12:15:20.301Z,10.10
2023-02-02T12:17:49.098Z,10.10
2023-02-02T12:20:21.075Z,10.20
2023-02-02T12:22:58.078Z,10.20
2023-02-02T12:25:36.547Z,10.20
2023-02-02T12:28:11.277Z,10.30
2023-02-02T12:30:43.135Z,10.40
2023-02-02T12:33:17.729Z,10.50
2023-02-02T12:35:58.089Z,10.60
2023-02-02T12:38:32.860Z,10.90
2023-02-02T12:41:08.276Z,11.00
2023-02-02T12:43:40.792Z,11.30
2023-02-02T12:46:17.053Z,11.30
2023-02-02T12:48:52.980Z,11.20
2023-02-02T12:51:32.831Z,11.10
2023-02-02T12:54:34.998Z,11.00
2023-02-02T12:57:09.369Z,10.90
2023-02-02T12:59:52.622Z,11.00
2023-02-02T13:02:24.132Z,11.10
2023-02-02T13:05:02.034Z,11.20
2023-02-02T13:07:42.508Z,11.20
2023-02-02T13:10:18.352Z,11.10
2023-02-02T13:12:51.094Z,11.00
2023-02-02T13:15:24.184Z,11.00
2023-02-02T13:17:54.874Z,11.00
2023-02-02T13:20:31.094Z,11.00
2023-02-02T13:23:02.152Z,10.90
2023-02-02T13:25:34.030Z,10.80
2023-02-02T13:28:03.124Z,10.60
2023-02-02T13:30:33.048Z,10.60
2023-02-02T13:33:02.679Z,10.50
2023-02-02T13:35:33.519Z,10.30
2023-02-02T13:38:05.445Z,10.40
2023-02-02T13:40:39.218Z,10.40
2023-02-02T13:43:13.579Z,10.20
2023-02-02T13:45:48.040Z,10.20
2023-02-02T13:48:21.074Z,10.10
2023-02-02T13:50:56.098Z,10.10
2023-02-02T13:53:36.841Z,10.10
2023-02-02T13:56:10.835Z,10.30
2023-02-02T13:58:45.655Z,10.30
2023-02-02T14:01:15.205Z,10.30
2023-02-02T14:03:51.790Z,10.40
2023-02-02T14:06:22.291Z,10.50
2023-02-02T14:08:53.000Z,10.60
2023-02-02T14:11:28.006Z,10.60
2023-02-02T14:14:17.103Z,10.50
2023-02-02T14:16:52.873Z,10.50
2023-02-02T14:19:41.985Z,10.50
2023-02-02T14:22:19.822Z,10.60
2023-02-02T14:24:49.522Z,10.70
2023-02-02T14:27:36.607Z,10.80
2023-02-02T14:30:22.026Z,10.90
2023-02-02T14:32:50.753Z,11.00
2023-02-02T14:35:37.696Z,11.00
2023-02-02T14:38:09.485Z,11.10
2023-02-02T14:40:46.838Z,11.20
2023-02-02T14:43:41.181Z,11.10
2023-02-02T14:46:28.649Z,11.10
2023-02-02T14:49:13.426Z,11.10
2023-02-02T14:51:47.895Z,11.00
2023-02-02T14:54:20.914Z,10.80
2023-02-02T14:56:51.259Z,10.80
2023-02-02T14:59:21.259Z,10.70
2023-02-02T15:01:55.915Z,10.60
2023-02-02T15:04:38.211Z,10.60
2023-02-02T15:07:40.270Z,10.60
2023-02-02T15:10:11.142Z,10.50
2023-02-02T15:12:41.216Z,10.40
2023-02-02T15:15:19.843Z,10.40
2023-02-02T15:18:03.363Z,10.40
2023-02-02T15:20:34.281Z,10.40
2023-02-02T15:23:04.647Z,10.40
2023-02-02T15:25:35.547Z,10.40
2023-02-02T15:28:09.899Z,10.40
2023-02-02T15:30:40.184Z,10.30
2023-02-02T15:33:16.680Z,10.30
2023-02-02T15:35:48.173Z,10.30
2023-02-02T15:38:20.425Z,10.30
2023-02-02T15:40:48.806Z,10.20
2023-02-02T15:43:18.521Z,10.10
2023-02-02T15:45:49.763Z,10.10
2023-02-02T15:48:25.409Z,10.00
2023-02-02T15:50:59.110Z,10.00
2023-02-02T15:53:28.345Z,10.10
2023-02-02T15:55:57.413Z,10.20
2023-02-02T15:58:27.712Z,10.10
2023-02-02T16:01:03.115Z,10.00
2023-02-02T16:03:44.222Z,10.00
2023-02-02T16:06:13.908Z,9.90
2023-02-02T16:08:42.526Z,9.80
2023-02-02T16:11:13.341Z,9.70
2023-02-02T16:13:42.030Z,9.60
2023-02-02T16:16:22.939Z,9.50
2023-02-02T16:19:02.992Z,9.50
2023-02-02T16:21:33.889Z,9.40
2023-02-02T16:24:04.018Z,9.40
2023-02-02T16:26:32.613Z,9.30
2023-02-02T16:29:00.987Z,9.30
2023-02-02T16:31:31.565Z,9.20
2023-02-02T16:34:02.484Z,9.10
2023-02-02T16:36:32.554Z,9.10
2023-02-02T16:39:01.755Z,9.10
2023-02-02T16:41:33.769Z,9.10
2023-02-02T16:44:20.683Z,9.10
2023-02-02T16:46:50.052Z,9.10
2023-02-02T16:49:19.500Z,9.10
2023-02-02T16:51:50.257Z,9.10
2023-02-02T16:54:20.700Z,9.10
2023-02-02T16:56:51.810Z,9.10
2023-02-02T16:59:23.898Z,9.20
2023-02-02T17:01:54.191Z,9.20
2023-02-02T17:04:25.774Z,9.20
2023-02-02T17:06:56.468Z,9.20
2023-02-02T17:09:33.131Z,9.20
2023-02-02T17:12:14.313Z,9.20
2023-02-02T17:14:53.281Z,9.20
2023-02-02T17:17:22.470Z,9.20
2023-02-02T17:19:50.730Z,9.20
2023-02-02T17:22:21.908Z,9.10
2023-02-02T17:24:52.165Z,9.10
2023-02-02T17:27:24.201Z,9.10
2023-02-02T17:29:52.473Z,9.10
2023-02-02T17:32:20.600Z,9.10
2023-02-02T17:34:50.795Z,9.10
2023-02-02T17:37:20.584Z,9.10
2023-02-02T17:39:50.753Z,9.10
2023-02-02T17:42:24.305Z,9.10
2023-02-02T17:44:52.894Z,9.10
2023-02-02T17:47:21.022Z,9.10
2023-02-02T17:49:49.053Z,9.00
2023-02-02T17:52:17.450Z,9.00
2023-02-02T17:54:46.934Z,8.90
2023-02-02T17:57:15.550Z,8.90
2023-02-02T17:59:44.259Z,8.90
2023-02-02T18:02:14.872Z,8.90
2023-02-02T18:04:45.618Z,8.90
2023-02-02T18:07:13.806Z,8.80
2023-02-02T18:09:41.823Z,8.80
2023-02-02T18:12:11.597Z,8.80
2023-02-02T18:14:39.835Z,8.80
2023-02-02T18:17:09.747Z,8.80
2023-02-02T18:19:39.294Z,8.80
2023-02-02T18:22:07.706Z,8.80
2023-02-02T18:24:36.218Z,8.70
2023-02-02T18:27:04.288Z,8.70
2023-02-02T18:29:33.676Z,8.70
2023-02-02T18:32:03.131Z,8.70
2023-02-02T18:34:33.870Z,8.70
2023-02-02T18:37:03.040Z,8.70
2023-02-02T18:39:31.753Z,8.70
2023-02-02T18:42:00.369Z,8.70
2023-02-02T18:44:29.263Z,8.70
2023-02-02T18:46:59.394Z,8.70
2023-02-02T18:49:27.904Z,8.70
2023-02-02T18:51:57.413Z,8.70
2023-02-02T18:54:28.955Z,8.60
2023-02-02T18:56:59.864Z,8.60
2023-02-02T18:59:29.054Z,8.70
2023-02-02T19:02:00.512Z,8.60
2023-02-02T19:04:29.184Z,8.60
2023-02-02T19:07:15.102Z,8.70
2023-02-02T19:09:45.804Z,8.70
2023-02-02T19:12:19.354Z,8.70
2023-02-02T19:14:47.704Z,8.70
2023-02-02T19:17:21.677Z,8.60
2023-02-02T19:19:50.259Z,8.50
2023-02-02T19:22:20.621Z,8.50
2023-02-02T19:24:49.289Z,8.40
2023-02-02T19:27:22.219Z,8.40
2023-02-02T19:29:52.879Z,8.40
2023-02-02T19:32:26.865Z,8.30
2023-02-02T19:34:57.291Z,8.30
2023-02-02T19:37:27.083Z,8.30
2023-02-02T19:39:56.969Z,8.20
2023-02-02T19:42:25.908Z,8.20
2023-02-02T19:44:54.403Z,8.20
2023-02-02T19:47:27.444Z,8.20
2023-02-02T19:49:56.027Z,8.10
2023-02-02T19:52:25.768Z,8.10
2023-02-02T19:54:55.540Z,8.10
2023-02-02T19:57:28.058Z,8.10
2023-02-02T19:59:56.908Z,8.00
2023-02-02T20:02:39.855Z,8.00
2023-02-02T20:05:16.266Z,8.00
2023-02-02T20:07:46.181Z,8.00
2023-02-02T20:10:18.877Z,8.00
2023-02-02T20:12:50.891Z,8.00
2023-02-02T20:15:26.650Z,8.00
2023-02-02T20:17:57.027Z,8.00
2023-02-02T20:20:26.451Z,8.10
2023-02-02T20:22:55.753Z,8.10
2023-02-02T20:25:24.268Z,8.10
2023-02-02T20:27:52.457Z,8.10
2023-02-02T20:30:22.424Z,8.10
2023-02-02T20:32:52.538Z,8.10
2023-02-02T20:35:29.416Z,8.10
2023-02-02T20:37:57.330Z,8.10
2023-02-02T20:40:27.461Z,8.10
2023-02-02T20:42:58.873Z,8.10
2023-02-02T20:45:28.018Z,8.10
2023-02-02T20:47:56.034Z,8.10
2023-02-02T20:50:24.515Z,8.10
2023-02-02T20:52:55.938Z,8.10
2023-02-02T20:55:23.971Z,8.10
2023-02-02T20:57:53.434Z,8.10
2023-02-02T21:00:27.200Z,8.10
2023-02-02T21:02:56.213Z,8.10
2023-02-02T21:05:24.381Z,8.10
2023-02-02T21:07:55.105Z,8.10
2023-02-02T21:10:25.874Z,8.10
2023-02-02T21:12:54.220Z,8.10
2023-02-02T21:15:22.269Z,8.10
2023-02-02T21:17:59.789Z,8.00
2023-02-02T21:20:28.435Z,8.00
2023-02-02T21:22:58.958Z,8.00
2023-02-02T21:25:29.743Z,8.00
2023-02-02T21:27:59.601Z,8.10
2023-02-02T21:30:28.258Z,8.10
2023-02-02T21:32:57.044Z,8.00
2023-02-02T21:35:27.929Z,7.90
2023-02-02T21:37:58.761Z,7.90
2023-02-02T21:40:31.399Z,7.90
2023-02-02T21:43:01.704Z,7.80
2023-02-02T21:45:34.950Z,7.70
2023-02-02T21:48:04.039Z,7.70
2023-02-02T21:50:35.275Z,7.70
2023-02-02T21:53:20.448Z,7.70
2023-02-02T21:55:53.455Z,7.70
2023-02-02T21:58:25.346Z,7.80
2023-02-02T22:00:55.107Z,7.80
2023-02-02T22:03:27.416Z,7.80
2023-02-02T22:06:01.041Z,7.90
2023-02-02T22:08:29.169Z,7.90
2023-02-02T22:10:59.014Z,7.90
2023-02-02T22:13:33.979Z,7.90
2023-02-02T22:16:03.568Z,7.90
2023-02-02T22:18:34.323Z,7.90
2023-02-02T22:21:02.673Z,7.80
2023-02-02T22:23:30.733Z,7.80
2023-02-02T22:26:03.127Z,7.80
2023-02-02T22:28:34.261Z,7.80
2023-02-02T22:31:16.415Z,7.80
2023-02-02T22:33:48.637Z,7.80
2023-02-02T22:39:20.662Z,7.80
2023-02-02T22:45:03.489Z,7.90
2023-02-02T22:47:34.766Z,7.90
2023-02-02T22:50:02.710Z,7.90
2023-02-02T22:52:35.971Z,7.90
2023-02-02T22:55:06.396Z,7.90
2023-02-02T22:57:39.926Z,7.90
2023-02-02T23:00:10.605Z,7.90
2023-02-02T23:02:46.798Z,7.90
2023-02-02T23:05:27.382Z,7.90
2023-02-02T23:10:42.636Z,7.90
2023-02-02T23:13:16.614Z,7.90
2023-02-02T23:15:45.102Z,7.90
2023-02-02T23:18:13.837Z,7.90
2023-02-02T23:20:41.897Z,7.90
2023-02-02T23:23:10.021Z,8.00
2023-02-02T23:25:38.652Z,7.90
2023-02-02T23:28:09.931Z,8.00
2023-02-02T23:30:39.600Z,7.90
2023-02-02T23:33:07.833Z,7.90
2023-02-02T23:35:36.151Z,7.80
2023-02-02T23:38:04.201Z,7.80
2023-02-02T23:40:32.335Z,7.70
2023-02-02T23:43:00.542Z,7.70
2023-02-02T23:45:28.667Z,7.70
2023-02-02T23:47:58.331Z,7.70
2023-02-02T23:50:27.133Z,7.70
2023-02-02T23:52:55.907Z,7.70
2023-02-02T23:55:23.970Z,7.70
2023-02-02T23:57:52.357Z,7.70
